< Typhoon 197125 1971 Season Typhoon 197127 >
Typhoon 197126 (WENDY)
General InformationTrack Information on Google Maps || Disaster Info.ResourceGoogle EarthGE AnimationAtom FeedGeoJSON
Detalied Best Track (Time Zone = UTC)
Year Month Day Hour Lat. Long. Pressure (hPa) Wind (kt) Class Image Chart
1971 9 4 00 21.0 169.0 1008 0 2 -- Chart
1971 9 4 06 20.5 168.5 1006 0 2 -- Chart
1971 9 4 12 20.0 168.0 1004 0 2 -- Chart
1971 9 4 18 19.7 167.0 998 0 2 -- Chart
1971 9 5 00 19.8 166.5 990 0 9 -- Chart
1971 9 5 06 20.0 166.4 985 0 9 -- Chart
1971 9 5 12 20.4 166.0 975 0 9 -- Chart
1971 9 5 18 20.6 165.6 970 0 9 -- Chart
1971 9 6 00 21.0 165.2 965 0 9 -- Chart
1971 9 6 06 21.3 164.6 945 0 9 -- Chart
1971 9 6 12 21.3 163.6 935 0 9 -- Chart
1971 9 6 18 21.4 162.9 925 0 9 -- Chart
1971 9 7 00 21.4 162.4 925 0 9 -- Chart
1971 9 7 06 21.5 161.5 925 0 9 -- Chart
1971 9 7 12 21.4 160.6 915 0 9 -- Chart
1971 9 7 18 21.3 160.3 920 0 9 -- Chart
1971 9 8 00 21.4 160.0 925 0 9 -- Chart
1971 9 8 06 21.5 159.6 930 0 9 -- Chart
1971 9 8 12 21.5 159.5 940 0 9 -- Chart
1971 9 8 18 21.8 159.5 945 0 9 -- Chart
1971 9 9 00 22.5 159.5 955 0 9 -- Chart
1971 9 9 06 23.3 159.1 950 0 9 -- Chart
1971 9 9 12 24.0 158.5 945 0 9 -- Chart
1971 9 9 18 24.7 157.5 935 0 9 -- Chart
1971 9 10 00 25.5 156.4 930 0 9 -- Chart
1971 9 10 06 26.6 155.4 925 0 9 -- Chart
1971 9 10 12 27.2 153.8 925 0 9 -- Chart
1971 9 10 18 27.6 152.4 930 0 9 -- Chart
1971 9 11 00 28.1 151.2 935 0 9 -- Chart
1971 9 11 06 28.7 150.3 940 0 9 -- Chart
1971 9 11 12 29.6 149.4 945 0 9 -- Chart
1971 9 11 18 30.3 148.5 945 0 9 -- Chart
1971 9 12 00 31.7 147.5 950 0 9 -- Chart
1971 9 12 06 33.6 147.2 950 0 9 -- Chart
1971 9 12 12 35.5 147.2 950 0 9 -- Chart
1971 9 12 18 37.7 147.8 960 0 9 -- Chart
1971 9 13 00 41.4 148.7 965 0 9 -- Chart
1971 9 13 06 43.8 150.0 970 0 9 -- Chart
1971 9 13 12 47.0 152.8 975 0 9 -- Chart
1971 9 13 18 49.0 155.0 975 0 6 -- Chart
1971 9 14 00 51.0 157.0 980 0 6 -- Chart
1971 9 14 06 52.4 158.3 984 0 6 -- Chart
1971 9 14 12 53.9 160.0 988 0 6 -- Chart
1971 9 14 18 55.2 161.1 988 0 6 -- Chart
1971 9 15 00 56.3 161.5 988 0 6 -- Chart
1971 9 15 06 56.5 161.5 988 0 6 -- Chart
1971 9 15 12 57.0 162.0 988 0 6 -- Chart
Japan Meteorological Agency Best Track Data | Correction Date : 1989-06-01
< Typhoon 197125 1971 Season Typhoon 197127 >

Help